Espaço - Ciências - Fenômenos Naturais
Meteógrafos Informações Meteorológicas em tempo real

Aeroporto de Congonhas

Histórico do Tempo
Temperatura atual: 15 graus 59 F    Umidade relativa: 87 %
Velocidade do vento: 04 nós 7 Km/h    Direção: 310 graus NW
Ajuste do altímetro ..: 1018 HPA
Visibilidade: Ótima    Tempo presente: Céu Limpo

Observação

Data Hora BRTTempo°CUmidadePressãoVentoVisib.
16/07 - 04:56   Céu Limpo 15° 87% 1018 Noroeste/9 km/h OK
16/07 - 03:56   Não Disponível 16° 82% 1018 Oeste-sudoeste/7 km/h 9999
16/07 - 02:56   Céu Limpo 16° 82% 1018 Norte/10 km/h CAVO
16/07 - 01:56   Chovendo fraco 15° 87% 1019 Norte-noroeste/12 km/h OK
16/07 - 00:56   Chovendo fraco 15° 87% 1019 Norte-noroeste/10 km/h OK
15/07 - 23:56   Chovendo 16° 82% 1020 Noroeste/16 km/h 9000
15/07 - 22:56   Chovendo fraco 17° 77% 1019 Sudoeste/7 km/h 9999
15/07 - 21:56   Chovendo fraco 18° 72% 1019 Sudoeste/7 km/h 9999
15/07 - 20:56   Céu Limpo 19° 72% 1019 Sudoeste/5 km/h CAVO
15/07 - 19:56   Céu Limpo 19° 72% 1019 Sudoeste/5 km/h CAVO
15/07 - 18:56   Parcialmente Nublado 18° 82% 1019 Norte-nordeste/5 km/h 9999
15/07 - 17:56   Parcialmente Nublado 19° 77% 1019 Sudoeste/7 km/h 9999
15/07 - 16:56   Parcialmente Nublado 19° 77% 1018 Sul/19 km/h OK
15/07 - 15:56   Céu Limpo 21° 60% 1018 Sul/9 km/h CAVO
15/07 - 14:56   Céu Limpo 20° 64% 1018 Sul-sudoeste/10 km/h CAVO
15/07 - 13:56   Céu Limpo 21° 64% 1018 Sul/14 km/h CAVO
15/07 - 12:56   Não Disponível 21° 60% 1019 /7 km/h OK
15/07 - 11:56   Não Disponível 21° 60% 1019 /7 km/h OK
15/07 - 10:56   Céu Limpo 19° 68% 1020 Este-sudeste/9 km/h CAVO
15/07 - 09:56   Não Disponível 18° 77% 1020 Sudeste/9 km/h OK
15/07 - 08:56   Céu Limpo 17° 82% 1019 Leste/5 km/h CAVO
15/07 - 07:56   Céu Limpo 17° 82% 1019 Leste/5 km/h CAVO
15/07 - 06:56   Parcialmente Nublado 16° 82% 1019 Sul-sudeste/12 km/h OK
15/07 - 05:56   Céu Encoberto 16° 82% 1018 Sudeste/7 km/h 9999


Apolo11.com - Todos os direitos reservados - 2000 - 2019
Política de Privacidade   |     Termo de Uso e Licenciamento   |  -   Entre em Contato

"O acaso não existe; o que chamamos de acaso é o efeito de uma causa que não conhecemos" - Voltaire